sensor_id;sensor_type;location;lat;lon;timestamp;pressure;altitude;pressure_sealevel;temperature;humidity
19096;BME280;9680;52.520;13.332;2022-12-07T00:03:31;101038.63;;;2.69;94.10
19096;BME280;9680;52.520;13.332;2022-12-07T00:06:00;101032.63;;;2.60;93.48
19096;BME280;9680;52.520;13.332;2022-12-07T00:08:26;101030.91;;;2.62;93.60
19096;BME280;9680;52.520;13.332;2022-12-07T00:10:51;101023.19;;;2.56;91.91
19096;BME280;9680;52.520;13.332;2022-12-07T00:13:17;101021.47;;;2.46;92.04
19096;BME280;9680;52.520;13.332;2022-12-07T00:15:43;101019.78;;;2.51;92.32
19096;BME280;9680;52.520;13.332;2022-12-07T00:18:08;101025.75;;;2.58;92.57
19096;BME280;9680;52.520;13.332;2022-12-07T00:20:34;101022.34;;;2.57;91.87
19096;BME280;9680;52.520;13.332;2022-12-07T00:22:59;101012.88;;;2.58;91.73
19096;BME280;9680;52.520;13.332;2022-12-07T00:25:25;101013.75;;;2.61;91.69
19096;BME280;9680;52.520;13.332;2022-12-07T00:27:53;101011.16;;;2.63;91.34
19096;BME280;9680;52.520;13.332;2022-12-07T00:30:21;101012.88;;;2.61;90.89
19096;BME280;9680;52.520;13.332;2022-12-07T00:32:47;101010.31;;;2.58;90.69
19096;BME280;9680;52.520;13.332;2022-12-07T00:35:13;101003.47;;;2.61;90.80
19096;BME280;9680;52.520;13.332;2022-12-07T00:37:38;101004.31;;;2.60;90.46
19096;BME280;9680;52.520;13.332;2022-12-07T00:40:05;101004.34;;;2.65;90.85
19096;BME280;9680;52.520;13.332;2022-12-07T00:42:30;101007.75;;;2.66;90.16
19096;BME280;9680;52.520;13.332;2022-12-07T00:44:56;100994.03;;;2.60;89.90
19096;BME280;9680;52.520;13.332;2022-12-07T00:47:21;101002.59;;;2.48;89.36
19096;BME280;9680;52.520;13.332;2022-12-07T00:49:46;100994.91;;;2.35;88.49
19096;BME280;9680;52.520;13.332;2022-12-07T00:52:12;100986.31;;;2.18;88.16
19096;BME280;9680;52.520;13.332;2022-12-07T00:54:37;100995.72;;;2.12;87.98
19096;BME280;9680;52.520;13.332;2022-12-07T00:57:03;100998.31;;;2.04;88.26
19096;BME280;9680;52.520;13.332;2022-12-07T00:59:28;101000.88;;;2.06;88.39
19096;BME280;9680;52.520;13.332;2022-12-07T01:01:54;100990.59;;;2.09;88.39
19096;BME280;9680;52.520;13.332;2022-12-07T01:04:19;100977.75;;;2.09;88.13
19096;BME280;9680;52.520;13.332;2022-12-07T01:06:45;100989.75;;;2.14;87.74
19096;BME280;9680;52.520;13.332;2022-12-07T01:09:10;100988.03;;;2.16;87.83
19096;BME280;9680;52.520;13.332;2022-12-07T01:11:35;100982.88;;;2.21;87.34
19096;BME280;9680;52.520;13.332;2022-12-07T01:14:01;100976.03;;;2.23;86.76
19096;BME280;9680;52.520;13.332;2022-12-07T01:16:30;100982.03;;;2.25;86.68
19096;BME280;9680;52.520;13.332;2022-12-07T01:18:57;100973.47;;;2.29;86.63
19096;BME280;9680;52.520;13.332;2022-12-07T01:21:26;100974.34;;;2.35;86.63
19096;BME280;9680;52.520;13.332;2022-12-07T01:23:52;100970.91;;;2.37;86.60
19096;BME280;9680;52.520;13.332;2022-12-07T01:26:21;100971.78;;;2.41;86.21
19096;BME280;9680;52.520;13.332;2022-12-07T01:28:47;100964.91;;;2.40;86.12
19096;BME280;9680;52.520;13.332;2022-12-07T01:31:18;100966.63;;;2.36;85.83
19096;BME280;9680;52.520;13.332;2022-12-07T01:33:48;100960.63;;;2.32;85.75
19096;BME280;9680;52.520;13.332;2022-12-07T01:36:15;100960.63;;;2.28;85.32
19096;BME280;9680;52.520;13.332;2022-12-07T01:38:41;100964.88;;;2.30;85.99
19096;BME280;9680;52.520;13.332;2022-12-07T01:41:07;100958.03;;;2.37;86.20
19096;BME280;9680;52.520;13.332;2022-12-07T01:43:33;100959.75;;;2.46;86.21
19096;BME280;9680;52.520;13.332;2022-12-07T01:46:00;100961.47;;;2.44;85.74
19096;BME280;9680;52.520;13.332;2022-12-07T01:48:35;100959.78;;;2.40;85.16
19096;BME280;9680;52.520;13.332;2022-12-07T01:51:05;100953.78;;;2.35;85.02
19096;BME280;9680;52.520;13.332;2022-12-07T01:53:34;100952.91;;;2.42;85.35
19096;BME280;9680;52.520;13.332;2022-12-07T01:56:00;100945.19;;;2.48;85.75
19096;BME280;9680;52.520;13.332;2022-12-07T01:58:26;100940.88;;;2.52;85.59
19096;BME280;9680;52.520;13.332;2022-12-07T02:00:52;100938.31;;;2.55;85.27
19096;BME280;9680;52.520;13.332;2022-12-07T02:03:22;100937.47;;;2.54;85.44
19096;BME280;9680;52.520;13.332;2022-12-07T02:05:49;100932.31;;;2.57;85.27
19096;BME280;9680;52.520;13.332;2022-12-07T02:08:16;100928.03;;;2.59;85.20
19096;BME280;9680;52.520;13.332;2022-12-07T02:10:42;100928.00;;;2.58;84.95
19096;BME280;9680;52.520;13.332;2022-12-07T02:13:15;100922.03;;;2.50;84.57
19096;BME280;9680;52.520;13.332;2022-12-07T02:29:58;100919.47;;;2.31;84.73
19096;BME280;9680;52.520;13.332;2022-12-07T02:35:22;100905.75;;;2.24;85.23
19096;BME280;9680;52.520;13.332;2022-12-07T02:38:01;100906.63;;;2.23;85.62
19096;BME280;9680;52.520;13.332;2022-12-07T02:40:48;100896.34;;;2.26;85.67
19096;BME280;9680;52.520;13.332;2022-12-07T02:43:37;100901.50;;;2.28;85.67
19096;BME280;9680;52.520;13.332;2022-12-07T02:46:16;100893.78;;;2.28;85.84
19096;BME280;9680;52.520;13.332;2022-12-07T02:48:43;100892.91;;;2.30;85.75
19096;BME280;9680;52.520;13.332;2022-12-07T02:51:09;100889.47;;;2.28;85.79
19096;BME280;9680;52.520;13.332;2022-12-07T02:53:36;100887.78;;;2.29;85.76
19096;BME280;9680;52.520;13.332;2022-12-07T02:56:10;100881.75;;;2.25;85.75
19096;BME280;9680;52.520;13.332;2022-12-07T03:04:00;100881.75;;;2.33;86.57
19096;BME280;9680;52.520;13.332;2022-12-07T03:06:31;100873.19;;;2.34;86.18
19096;BME280;9680;52.520;13.332;2022-12-07T03:09:14;100866.34;;;2.33;86.06
19096;BME280;9680;52.520;13.332;2022-12-07T03:11:48;100862.91;;;2.34;86.65
19096;BME280;9680;52.520;13.332;2022-12-07T03:14:20;100862.03;;;2.41;86.46
19096;BME280;9680;52.520;13.332;2022-12-07T03:16:57;100852.59;;;2.48;86.69
19096;BME280;9680;52.520;13.332;2022-12-07T03:19:26;100851.72;;;2.55;86.35
19096;BME280;9680;52.520;13.332;2022-12-07T03:22:04;100847.41;;;2.56;86.38
19096;BME280;9680;52.520;13.332;2022-12-07T03:24:41;100847.41;;;2.62;86.40
19096;BME280;9680;52.520;13.332;2022-12-07T03:27:14;100841.41;;;2.66;86.29
19096;BME280;9680;52.520;13.332;2022-12-07T03:29:55;100833.66;;;2.72;86.22
19096;BME280;9680;52.520;13.332;2022-12-07T03:32:56;100831.03;;;2.80;86.22
19096;BME280;9680;52.520;13.332;2022-12-07T03:35:47;100826.72;;;2.85;86.25
19096;BME280;9680;52.520;13.332;2022-12-07T03:38:18;100813.00;;;2.88;86.09
19096;BME280;9680;52.520;13.332;2022-12-07T03:40:59;100808.69;;;2.91;86.05
19096;BME280;9680;52.520;13.332;2022-12-07T03:43:28;100802.66;;;2.97;86.01
19096;BME280;9680;52.520;13.332;2022-12-07T03:46:10;100792.38;;;2.99;85.92
19096;BME280;9680;52.520;13.332;2022-12-07T03:51:50;100786.34;;;3.01;86.09
19096;BME280;9680;52.520;13.332;2022-12-07T03:54:24;100788.88;;;3.04;86.00
19096;BME280;9680;52.520;13.332;2022-12-07T03:56:53;100782.91;;;3.04;85.81
19096;BME280;9680;52.520;13.332;2022-12-07T03:59:20;100776.91;;;3.00;85.88
19096;BME280;9680;52.520;13.332;2022-12-07T04:01:53;100772.63;;;2.98;85.88
19096;BME280;9680;52.520;13.332;2022-12-07T04:04:20;100773.47;;;2.97;86.17
19096;BME280;9680;52.520;13.332;2022-12-07T04:06:45;100782.06;;;2.96;86.23
19096;BME280;9680;52.520;13.332;2022-12-07T04:09:11;100770.94;;;2.92;86.28
19096;BME280;9680;52.520;13.332;2022-12-07T04:11:36;100773.50;;;2.94;86.45
19096;BME280;9680;52.520;13.332;2022-12-07T04:14:02;100767.50;;;2.91;86.29
19096;BME280;9680;52.520;13.332;2022-12-07T04:16:47;100761.53;;;2.86;86.87
19096;BME280;9680;52.520;13.332;2022-12-07T04:19:14;100759.81;;;2.85;86.81
19096;BME280;9680;52.520;13.332;2022-12-07T04:21:40;100759.84;;;2.84;87.11
19096;BME280;9680;52.520;13.332;2022-12-07T04:24:05;100759.00;;;2.85;87.27
19096;BME280;9680;52.520;13.332;2022-12-07T04:26:32;100752.97;;;2.84;87.45
19096;BME280;9680;52.520;13.332;2022-12-07T04:28:57;100748.69;;;2.83;87.40
19096;BME280;9680;52.520;13.332;2022-12-07T04:31:23;100742.72;;;2.83;87.80
19096;BME280;9680;52.520;13.332;2022-12-07T04:33:48;100744.41;;;2.84;87.90
19096;BME280;9680;52.520;13.332;2022-12-07T04:36:14;100735.81;;;2.85;87.98
19096;BME280;9680;52.520;13.332;2022-12-07T04:38:39;100734.97;;;2.84;87.87
19096;BME280;9680;52.520;13.332;2022-12-07T04:41:06;100732.38;;;2.84;87.88
19096;BME280;9680;52.520;13.332;2022-12-07T04:43:32;100728.97;;;2.82;88.36
19096;BME280;9680;52.520;13.332;2022-12-07T04:45:57;100729.00;;;2.79;87.99
19096;BME280;9680;52.520;13.332;2022-12-07T04:48:23;100725.63;;;2.72;88.29
19096;BME280;9680;52.520;13.332;2022-12-07T04:50:48;100722.19;;;2.73;88.69
19096;BME280;9680;52.520;13.332;2022-12-07T04:53:17;100730.72;;;2.79;88.90
19096;BME280;9680;52.520;13.332;2022-12-07T04:55:44;100728.13;;;2.80;89.05
19096;BME280;9680;52.520;13.332;2022-12-07T04:58:10;100719.53;;;2.84;89.22
19096;BME280;9680;52.520;13.332;2022-12-07T05:00:36;100717.78;;;2.88;89.38
19096;BME280;9680;52.520;13.332;2022-12-07T05:03:02;100724.66;;;2.89;89.11
19096;BME280;9680;52.520;13.332;2022-12-07T05:05:27;100726.34;;;2.93;89.36
19096;BME280;9680;52.520;13.332;2022-12-07T05:07:53;100716.03;;;2.95;89.42
19096;BME280;9680;52.520;13.332;2022-12-07T05:10:18;100724.59;;;2.94;89.62
19096;BME280;9680;52.520;13.332;2022-12-07T05:12:44;100708.28;;;2.95;89.73
19096;BME280;9680;52.520;13.332;2022-12-07T05:15:10;100708.31;;;2.96;89.93
19096;BME280;9680;52.520;13.332;2022-12-07T05:17:36;100712.59;;;2.99;90.01
19096;BME280;9680;52.520;13.332;2022-12-07T05:20:01;100709.16;;;3.00;90.05
19096;BME280;9680;52.520;13.332;2022-12-07T05:22:26;100710.84;;;3.04;90.23
19096;BME280;9680;52.520;13.332;2022-12-07T05:24:54;100701.34;;;3.08;90.38
19096;BME280;9680;52.520;13.332;2022-12-07T05:27:20;100707.34;;;3.11;90.34
19096;BME280;9680;52.520;13.332;2022-12-07T05:29:45;100703.00;;;3.15;90.39
19096;BME280;9680;52.520;13.332;2022-12-07T05:32:11;100702.16;;;3.13;90.27
19096;BME280;9680;52.520;13.332;2022-12-07T05:34:37;100693.63;;;3.09;90.21
19096;BME280;9680;52.520;13.332;2022-12-07T05:37:02;100691.91;;;3.10;90.79
19096;BME280;9680;52.520;13.332;2022-12-07T05:39:28;100701.31;;;3.15;90.83
19096;BME280;9680;52.520;13.332;2022-12-07T05:41:53;100697.00;;;3.17;90.79
19096;BME280;9680;52.520;13.332;2022-12-07T05:44:46;100695.25;;;3.23;90.79
19096;BME280;9680;52.520;13.332;2022-12-07T05:47:13;100692.66;;;3.23;90.58
19096;BME280;9680;52.520;13.332;2022-12-07T05:49:39;100689.19;;;3.27;90.81
19096;BME280;9680;52.520;13.332;2022-12-07T05:52:05;100684.03;;;3.25;90.76
19096;BME280;9680;52.520;13.332;2022-12-07T05:54:31;100683.22;;;3.25;90.93
19096;BME280;9680;52.520;13.332;2022-12-07T05:56:56;100676.28;;;3.28;91.33
19096;BME280;9680;52.520;13.332;2022-12-07T05:59:21;100681.41;;;3.33;91.23
19096;BME280;9680;52.520;13.332;2022-12-07T06:04:26;100665.91;;;3.39;91.02
19096;BME280;9680;52.520;13.332;2022-12-07T06:06:52;100664.13;;;3.44;91.11
19096;BME280;9680;52.520;13.332;2022-12-07T06:09:18;100651.25;;;3.44;90.93
19096;BME280;9680;52.520;13.332;2022-12-07T06:11:44;100659.00;;;3.44;91.24
19096;BME280;9680;52.520;13.332;2022-12-07T06:14:28;100658.09;;;3.48;91.14
19096;BME280;9680;52.520;13.332;2022-12-07T06:16:53;100653.78;;;3.52;90.78
19096;BME280;9680;52.520;13.332;2022-12-07T06:19:19;100657.19;;;3.53;90.72
19096;BME280;9680;52.520;13.332;2022-12-07T06:21:44;100655.50;;;3.50;90.99
19096;BME280;9680;52.520;13.332;2022-12-07T06:24:11;100648.72;;;3.43;90.91
19096;BME280;9680;52.520;13.332;2022-12-07T06:26:38;100651.31;;;3.40;90.99
19096;BME280;9680;52.520;13.332;2022-12-07T06:29:03;100648.75;;;3.40;91.26
19096;BME280;9680;52.520;13.332;2022-12-07T06:31:29;100646.19;;;3.35;91.36
19096;BME280;9680;52.520;13.332;2022-12-07T06:34:02;100648.81;;;3.33;91.66
19096;BME280;9680;52.520;13.332;2022-12-07T06:36:28;100654.75;;;3.37;91.69
19096;BME280;9680;52.520;13.332;2022-12-07T06:38:54;100644.47;;;3.37;91.82
19096;BME280;9680;52.520;13.332;2022-12-07T06:41:20;100650.47;;;3.38;91.90
19096;BME280;9680;52.520;13.332;2022-12-07T06:43:46;100644.47;;;3.37;92.08
19096;BME280;9680;52.520;13.332;2022-12-07T06:46:12;100652.22;;;3.34;92.29
19096;BME280;9680;52.520;13.332;2022-12-07T06:48:38;100646.25;;;3.29;92.43
19096;BME280;9680;52.520;13.332;2022-12-07T06:51:03;100656.53;;;3.30;92.50
19096;BME280;9680;52.520;13.332;2022-12-07T06:53:29;100642.81;;;3.30;92.85
19096;BME280;9680;52.520;13.332;2022-12-07T06:55:54;100652.19;;;3.37;93.05
19096;BME280;9680;52.520;13.332;2022-12-07T06:58:20;100645.31;;;3.41;93.18
19096;BME280;9680;52.520;13.332;2022-12-07T07:00:47;100642.66;;;3.47;93.16
19096;BME280;9680;52.520;13.332;2022-12-07T07:03:13;100637.47;;;3.50;93.18
19096;BME280;9680;52.520;13.332;2022-12-07T07:05:39;100644.38;;;3.46;93.28
19096;BME280;9680;52.520;13.332;2022-12-07T07:08:04;100642.63;;;3.48;93.04
19096;BME280;9680;52.520;13.332;2022-12-07T07:10:30;100635.72;;;3.54;93.27
19096;BME280;9680;52.520;13.332;2022-12-07T07:12:56;100644.28;;;3.57;93.34
19096;BME280;9680;52.520;13.332;2022-12-07T07:15:21;100639.09;;;3.60;93.46
19096;BME280;9680;52.520;13.332;2022-12-07T07:17:47;100641.63;;;3.62;93.31
19096;BME280;9680;52.520;13.332;2022-12-07T07:20:13;100641.66;;;3.60;93.10
19096;BME280;9680;52.520;13.332;2022-12-07T07:22:39;100641.66;;;3.59;93.24
19096;BME280;9680;52.520;13.332;2022-12-07T07:25:04;100635.63;;;3.61;92.96
19096;BME280;9680;52.520;13.332;2022-12-07T07:27:31;100642.50;;;3.62;93.12
19096;BME280;9680;52.520;13.332;2022-12-07T07:29:56;100645.88;;;3.68;93.11
19096;BME280;9680;52.520;13.332;2022-12-07T07:32:22;100640.72;;;3.68;92.65
19096;BME280;9680;52.520;13.332;2022-12-07T07:34:47;100640.78;;;3.61;92.06
19096;BME280;9680;52.520;13.332;2022-12-07T07:37:13;100631.47;;;3.51;91.51
19096;BME280;9680;52.520;13.332;2022-12-07T07:39:39;100635.88;;;3.38;91.15
19096;BME280;9680;52.520;13.332;2022-12-07T07:42:05;100641.13;;;3.24;91.45
19096;BME280;9680;52.520;13.332;2022-12-07T07:44:32;100649.78;;;3.18;93.12
19096;BME280;9680;52.520;13.332;2022-12-07T07:46:57;100639.38;;;3.29;94.12
19096;BME280;9680;52.520;13.332;2022-12-07T07:49:22;100645.25;;;3.45;94.11
19096;BME280;9680;52.520;13.332;2022-12-07T07:51:48;100644.28;;;3.57;93.38
19096;BME280;9680;52.520;13.332;2022-12-07T07:54:14;100644.25;;;3.60;92.15
19096;BME280;9680;52.520;13.332;2022-12-07T07:56:39;100646.78;;;3.62;91.62
19096;BME280;9680;52.520;13.332;2022-12-07T07:59:05;100649.34;;;3.65;91.56
19096;BME280;9680;52.520;13.332;2022-12-07T08:01:30;100645.94;;;3.61;90.77
19096;BME280;9680;52.520;13.332;2022-12-07T08:03:56;100648.53;;;3.61;90.50
19096;BME280;9680;52.520;13.332;2022-12-07T08:06:21;100656.25;;;3.61;90.09
19096;BME280;9680;52.520;13.332;2022-12-07T08:08:48;100654.53;;;3.60;90.07
19096;BME280;9680;52.520;13.332;2022-12-07T08:11:14;100652.81;;;3.62;90.38
19096;BME280;9680;52.520;13.332;2022-12-07T08:13:40;100652.78;;;3.67;90.02
19096;BME280;9680;52.520;13.332;2022-12-07T08:16:07;100658.72;;;3.72;89.90
19096;BME280;9680;52.520;13.332;2022-12-07T08:18:38;100648.38;;;3.74;89.50
19096;BME280;9680;52.520;13.332;2022-12-07T08:21:05;100651.78;;;3.76;89.33
19096;BME280;9680;52.520;13.332;2022-12-07T08:23:31;100656.03;;;3.80;88.86
19096;BME280;9680;52.520;13.332;2022-12-07T08:26:06;100661.19;;;3.82;88.54
19096;BME280;9680;52.520;13.332;2022-12-07T08:28:32;100658.50;;;3.89;88.40
19096;BME280;9680;52.520;13.332;2022-12-07T08:31:15;100666.16;;;3.99;88.64
19096;BME280;9680;52.520;13.332;2022-12-07T08:33:41;100664.38;;;4.02;87.75
19096;BME280;9680;52.520;13.332;2022-12-07T08:36:10;100668.63;;;4.06;87.20
19096;BME280;9680;52.520;13.332;2022-12-07T08:38:37;100661.81;;;4.02;86.14
19096;BME280;9680;52.520;13.332;2022-12-07T08:41:03;100672.09;;;4.05;86.07
19096;BME280;9680;52.520;13.332;2022-12-07T08:43:54;100678.03;;;4.11;85.23
19096;BME280;9680;52.520;13.332;2022-12-07T08:49:10;100674.66;;;4.07;82.69
19096;BME280;9680;52.520;13.332;2022-12-07T08:51:37;100664.34;;;4.07;81.63
19096;BME280;9680;52.520;13.332;2022-12-07T08:54:07;100682.41;;;4.05;79.92
19096;BME280;9680;52.520;13.332;2022-12-07T08:56:33;100680.69;;;4.04;79.16
19096;BME280;9680;52.520;13.332;2022-12-07T08:59:00;100671.16;;;4.10;79.78
19096;BME280;9680;52.520;13.332;2022-12-07T09:01:26;100689.25;;;4.06;78.89
19096;BME280;9680;52.520;13.332;2022-12-07T09:03:53;100687.56;;;4.07;77.79
19096;BME280;9680;52.520;13.332;2022-12-07T09:06:18;100703.81;;;4.11;77.20
19096;BME280;9680;52.520;13.332;2022-12-07T09:08:46;100691.84;;;4.06;75.86
19096;BME280;9680;52.520;13.332;2022-12-07T09:11:13;100703.84;;;4.09;76.06
19096;BME280;9680;52.520;13.332;2022-12-07T09:13:38;100701.28;;;4.07;75.43
19096;BME280;9680;52.520;13.332;2022-12-07T09:16:04;100697.06;;;4.00;74.57
19096;BME280;9680;52.520;13.332;2022-12-07T09:18:30;100705.69;;;3.98;74.80
19096;BME280;9680;52.520;13.332;2022-12-07T09:20:56;100708.28;;;3.96;74.27
19096;BME280;9680;52.520;13.332;2022-12-07T09:23:21;100704.91;;;3.91;74.43
19096;BME280;9680;52.520;13.332;2022-12-07T09:25:47;100716.97;;;3.89;74.63
19096;BME280;9680;52.520;13.332;2022-12-07T09:28:13;100699.69;;;3.97;74.75
19096;BME280;9680;52.520;13.332;2022-12-07T09:30:45;100710.06;;;3.91;74.61
19096;BME280;9680;52.520;13.332;2022-12-07T09:33:11;100709.16;;;3.95;74.41
19096;BME280;9680;52.520;13.332;2022-12-07T09:35:36;100716.97;;;3.87;74.19
19096;BME280;9680;52.520;13.332;2022-12-07T09:38:02;100725.59;;;3.83;74.75
19096;BME280;9680;52.520;13.332;2022-12-07T09:40:27;100727.38;;;3.78;75.21
19096;BME280;9680;52.520;13.332;2022-12-07T09:42:54;100729.06;;;3.79;75.67
19096;BME280;9680;52.520;13.332;2022-12-07T09:45:25;100738.44;;;3.86;75.20
19096;BME280;9680;52.520;13.332;2022-12-07T09:47:52;100721.25;;;3.88;74.68
19096;BME280;9680;52.520;13.332;2022-12-07T09:50:28;100733.25;;;3.91;74.49
19096;BME280;9680;52.520;13.332;2022-12-07T09:53:19;100736.69;;;3.90;74.24
19096;BME280;9680;52.520;13.332;2022-12-07T09:55:47;100719.47;;;3.93;73.87
19096;BME280;9680;52.520;13.332;2022-12-07T09:58:24;100728.88;;;3.99;74.06
19096;BME280;9680;52.520;13.332;2022-12-07T10:01:11;100735.72;;;4.00;73.90
19096;BME280;9680;52.520;13.332;2022-12-07T10:03:40;100725.34;;;4.06;74.28
19096;BME280;9680;52.520;13.332;2022-12-07T10:06:06;100726.31;;;3.96;73.68
19096;BME280;9680;52.520;13.332;2022-12-07T10:08:33;100728.97;;;3.88;74.03
19096;BME280;9680;52.520;13.332;2022-12-07T10:11:01;100726.38;;;3.91;74.70
19096;BME280;9680;52.520;13.332;2022-12-07T10:14:09;100727.97;;;4.05;75.07
19096;BME280;9680;52.520;13.332;2022-12-07T10:16:40;100733.91;;;4.08;74.14
19096;BME280;9680;52.520;13.332;2022-12-07T10:19:27;100733.28;;;3.88;74.67
19096;BME280;9680;52.520;13.332;2022-12-07T10:22:20;100739.28;;;3.90;74.54
19096;BME280;9680;52.520;13.332;2022-12-07T10:24:46;100743.69;;;3.78;74.74
19096;BME280;9680;52.520;13.332;2022-12-07T10:27:21;100732.59;;;3.70;75.19
19096;BME280;9680;52.520;13.332;2022-12-07T10:29:49;100724.09;;;3.59;75.54
19096;BME280;9680;52.520;13.332;2022-12-07T10:34:41;100727.81;;;3.27;76.95
19096;BME280;9680;52.520;13.332;2022-12-07T10:39:51;100737.13;;;3.45;77.94
19096;BME280;9680;52.520;13.332;2022-12-07T10:42:25;100725.78;;;3.66;77.47
19096;BME280;9680;52.520;13.332;2022-12-07T10:47:34;100721.13;;;3.99;77.07
19096;BME280;9680;52.520;13.332;2022-12-07T11:05:54;100713.19;;;4.18;76.48
19096;BME280;9680;52.520;13.332;2022-12-07T11:13:54;100710.69;;;4.12;77.26
19096;BME280;9680;52.520;13.332;2022-12-07T11:27:39;100696.81;;;4.22;76.78
19096;BME280;9680;52.520;13.332;2022-12-07T11:30:13;100692.50;;;4.22;76.86
19096;BME280;9680;52.520;13.332;2022-12-07T11:35:24;100687.28;;;4.27;76.69
19096;BME280;9680;52.520;13.332;2022-12-07T11:37:58;100686.34;;;4.34;77.03
19096;BME280;9680;52.520;13.332;2022-12-07T11:40:28;100688.78;;;4.45;77.04
19096;BME280;9680;52.520;13.332;2022-12-07T11:43:04;100686.16;;;4.48;76.33
19096;BME280;9680;52.520;13.332;2022-12-07T11:45:34;100688.72;;;4.48;76.25
19096;BME280;9680;52.520;13.332;2022-12-07T11:48:09;100681.03;;;4.47;76.40
19096;BME280;9680;52.520;13.332;2022-12-07T12:03:47;100678.44;;;4.47;76.44
19096;BME280;9680;52.520;13.332;2022-12-07T12:06:13;100674.03;;;4.55;76.71
19096;BME280;9680;52.520;13.332;2022-12-07T12:19:25;100653.84;;;4.84;75.66
19096;BME280;9680;52.520;13.332;2022-12-07T12:22:04;100657.25;;;4.84;75.66
19096;BME280;9680;52.520;13.332;2022-12-07T12:24:33;100658.03;;;4.91;75.71
19096;BME280;9680;52.520;13.332;2022-12-07T12:27:07;100660.59;;;4.91;75.24
19096;BME280;9680;52.520;13.332;2022-12-07T12:29:39;100654.66;;;4.86;75.10
19096;BME280;9680;52.520;13.332;2022-12-07T12:32:39;100656.53;;;4.76;74.93
19096;BME280;9680;52.520;13.332;2022-12-07T12:37:54;100652.53;;;4.56;75.88
19096;BME280;9680;52.520;13.332;2022-12-07T12:42:46;100657.69;;;4.56;75.88
19096;BME280;9680;52.520;13.332;2022-12-07T12:53:19;100649.16;;;4.51;76.92
19096;BME280;9680;52.520;13.332;2022-12-07T12:58:36;100643.81;;;4.62;77.09
19096;BME280;9680;52.520;13.332;2022-12-07T13:03:56;100647.28;;;4.62;76.79
19096;BME280;9680;52.520;13.332;2022-12-07T13:08:51;100652.31;;;4.70;77.09
19096;BME280;9680;52.520;13.332;2022-12-07T13:11:25;100642.00;;;4.69;76.75
19096;BME280;9680;52.520;13.332;2022-12-07T13:16:58;100647.31;;;4.59;77.16
19096;BME280;9680;52.520;13.332;2022-12-07T13:19:53;100645.59;;;4.58;77.32
19096;BME280;9680;52.520;13.332;2022-12-07T13:24:58;100639.56;;;4.58;77.70
19096;BME280;9680;52.520;13.332;2022-12-07T13:27:28;100650.69;;;4.63;77.90
19096;BME280;9680;52.520;13.332;2022-12-07T13:29:57;100637.78;;;4.64;77.99
19096;BME280;9680;52.520;13.332;2022-12-07T13:32:26;100646.28;;;4.70;78.01
19096;BME280;9680;52.520;13.332;2022-12-07T13:34:52;100635.06;;;4.74;77.77
19096;BME280;9680;52.520;13.332;2022-12-07T13:39:49;100645.47;;;4.68;77.40
19096;BME280;9680;52.520;13.332;2022-12-07T13:42:26;100644.69;;;4.61;77.85
19096;BME280;9680;52.520;13.332;2022-12-07T13:44:52;100635.25;;;4.61;77.92
19096;BME280;9680;52.520;13.332;2022-12-07T13:47:36;100649.06;;;4.57;78.04
19096;BME280;9680;52.520;13.332;2022-12-07T13:50:26;100642.16;;;4.59;78.14
19096;BME280;9680;52.520;13.332;2022-12-07T13:52:56;100646.41;;;4.62;78.19
19096;BME280;9680;52.520;13.332;2022-12-07T13:55:22;100642.94;;;4.66;78.07
19096;BME280;9680;52.520;13.332;2022-12-07T13:57:52;100648.06;;;4.68;77.65
19096;BME280;9680;52.520;13.332;2022-12-07T14:03:25;100644.59;;;4.69;77.91
19096;BME280;9680;52.520;13.332;2022-12-07T14:06:18;100645.41;;;4.71;77.98
19096;BME280;9680;52.520;13.332;2022-12-07T14:08:45;100644.63;;;4.65;76.97
19096;BME280;9680;52.520;13.332;2022-12-07T14:11:18;100645.56;;;4.60;77.34
19096;BME280;9680;52.520;13.332;2022-12-07T14:16:28;100649.06;;;4.57;77.46
19096;BME280;9680;52.520;13.332;2022-12-07T14:18:56;100655.09;;;4.56;77.62
19096;BME280;9680;52.520;13.332;2022-12-07T14:21:25;100654.22;;;4.56;77.58
19096;BME280;9680;52.520;13.332;2022-12-07T14:24:15;100650.16;;;4.41;77.41
19096;BME280;9680;52.520;13.332;2022-12-07T14:26:44;100648.50;;;4.36;77.95
19096;BME280;9680;52.520;13.332;2022-12-07T14:29:30;100645.09;;;4.33;78.18
19096;BME280;9680;52.520;13.332;2022-12-07T14:31:58;100645.22;;;4.23;78.05
19096;BME280;9680;52.520;13.332;2022-12-07T14:34:30;100644.56;;;4.09;78.33
19096;BME280;9680;52.520;13.332;2022-12-07T14:36:56;100640.38;;;3.99;79.03
19096;BME280;9680;52.520;13.332;2022-12-07T14:39:21;100639.56;;;3.93;79.76
19096;BME280;9680;52.520;13.332;2022-12-07T14:42:01;100631.91;;;3.89;79.75
19096;BME280;9680;52.520;13.332;2022-12-07T14:44:26;100635.38;;;3.83;79.78
19096;BME280;9680;52.520;13.332;2022-12-07T14:46:52;100628.63;;;3.74;80.00
19096;BME280;9680;52.520;13.332;2022-12-07T14:49:18;100633.03;;;3.66;80.31
19096;BME280;9680;52.520;13.332;2022-12-07T14:51:46;100634.81;;;3.58;81.23
19096;BME280;9680;52.520;13.332;2022-12-07T14:54:20;100632.28;;;3.53;82.01
19096;BME280;9680;52.520;13.332;2022-12-07T14:56:46;100627.88;;;3.63;82.05
19096;BME280;9680;52.520;13.332;2022-12-07T14:59:17;100632.25;;;3.56;81.33
19096;BME280;9680;52.520;13.332;2022-12-07T15:01:44;100635.78;;;3.49;81.87
19096;BME280;9680;52.520;13.332;2022-12-07T15:04:09;100640.09;;;3.45;82.01
19096;BME280;9680;52.520;13.332;2022-12-07T15:06:35;100643.59;;;3.38;82.21
19096;BME280;9680;52.520;13.332;2022-12-07T15:09:01;100631.69;;;3.28;82.12
19096;BME280;9680;52.520;13.332;2022-12-07T15:11:27;100631.75;;;3.22;82.66
19096;BME280;9680;52.520;13.332;2022-12-07T15:13:52;100636.91;;;3.17;82.78
19096;BME280;9680;52.520;13.332;2022-12-07T15:16:34;100628.41;;;3.10;82.95
19096;BME280;9680;52.520;13.332;2022-12-07T15:19:00;100633.59;;;3.07;83.27
19096;BME280;9680;52.520;13.332;2022-12-07T15:21:26;100639.63;;;3.03;83.40
19096;BME280;9680;52.520;13.332;2022-12-07T15:23:51;100646.47;;;3.02;83.34
19096;BME280;9680;52.520;13.332;2022-12-07T15:26:17;100633.66;;;2.99;83.63